Terminal Aerodrome Forecast
Issued by NWS

Home | Current Version | Previous Version | Text Only | Print | Product List | Glossary On
Versions: 1 2 3 4 5 6 7 8 9 10 11 12 13 14 15 16
000
FTUS42 TJSJ 191720
TAFKPK
TAF
TKPK 191720Z 1918/2018 07009KT P6SM VCSH FEW012 SCT017
     FM201200 08010KT P6SM SCT025 BKN060
      AMD NOT SKED 2002/2011=

USA.gov is the U.S. government's official web portal to all federal, state and local government web resources and services.